Buffalo Niagara International Airport Buffalo US
ICAO: KBUF
IATA: BUF
Category: Large
Scheduled Services: Yes

Elevation: 728 ft
TransAlt. 18000 ft.

Airport Communications:
APP/DEP:126.15
ATIS:135.35
CLNC DEL:124.7
GND:121.9
RDO:122.6
TWR:120.5

KBUF Zoom In..

Runways:

(A) RW 05 length 8829 ft width 150 ft
ILS 108.50 / hdg 55

(B) RW 14 length 7161 ft width 150 ft
---- / hdg 138

(C) RW 23 length 8829 ft width 150 ft
ILS 111.30 / hdg 235

(D) RW 32 length 7161 ft width 150 ft
ILS 109.95 / hdg 318

Location; KBUF
Day. 04 / Time. 00.54 Zulu
* Altimeter: 29.97
* Temperature: 04° c. 39.2°f.
* Wind from: 210° Speed 16 kn with Gusts up to 21 kn.
Dewpoint: -07° c.
Visibility: 10 Statute Miles.
Clouds: Overcast 15000 ft.

KBUF 040054Z 21016G21KT 10SM OVC150 04/M07 A2997 RMK AO2 SLP153 OCNL BINOVC T00441072

Going to: --> -->


Wind From 210°
Speed 16 kn.

 
 
jpsmedia worldairports.se 2020   terms of use